Time;durP1;ratioP1;P1;durP2;ratioP2;P2;SDS_P1;SDS_P2;PMS_P1;PMS_P2;Temp;Humidity;BMP_temperature;BMP_pressure;BME280_temperature;BME280_humidity;BME280_pressure;Samples;Min_cycle;Max_cycle;Signal;HPM_P1;HPM_P2
2021/07/06 00:01:47;;;;;;;8.60;7.60;;;24.30;99.90;;;;;;5137999;27;20452;-63
2021/07/06 00:04:13;;;;;;;10.07;8.47;;;24.30;99.90;;;;;;5138377;27;20520;-67
2021/07/06 00:06:39;;;;;;;9.47;8.23;;;24.20;99.90;;;;;;5138373;27;20203;-63
2021/07/06 00:09:04;;;;;;;12.13;8.73;;;24.20;99.90;;;;;;5138204;27;20701;-66
2021/07/06 00:11:30;;;;;;;10.90;8.50;;;24.20;99.90;;;;;;5119625;27;20240;-66
2021/07/06 00:13:56;;;;;;;7.97;7.23;;;24.20;99.90;;;;;;5137921;27;20625;-64
2021/07/06 00:16:22;;;;;;;10.83;8.10;;;24.10;99.90;;;;;;5138291;27;20496;-66
2021/07/06 00:18:48;;;;;;;10.40;8.97;;;24.10;99.90;;;;;;5137852;27;20204;-66
2021/07/06 00:21:14;;;;;;;9.20;8.30;;;24.00;99.90;;;;;;5138114;27;20204;-67
2021/07/06 00:23:40;;;;;;;9.93;8.40;;;24.00;99.90;;;;;;5137768;27;20175;-63
2021/07/06 00:26:05;;;;;;;10.03;8.40;;;23.90;99.90;;;;;;5119087;27;21026;-62
2021/07/06 00:28:32;;;;;;;9.80;8.90;;;23.90;99.90;;;;;;5137715;27;20176;-65
2021/07/06 00:30:58;;;;;;;11.90;9.40;;;23.90;99.90;;;;;;5137762;27;20529;-66
2021/07/06 00:33:29;;;;;;;9.43;8.43;;;23.80;99.90;;;;;;5137655;27;20733;-63
2021/07/06 00:35:58;;;;;;;9.73;7.90;;;23.80;99.90;;;;;;5137715;27;20451;-66
2021/07/06 00:38:25;;;;;;;8.67;7.87;;;23.80;99.90;;;;;;5119028;27;20491;-63
2021/07/06 00:40:55;;;;;;;8.97;8.07;;;23.70;99.90;;;;;;5119040;27;20453;-66
2021/07/06 00:43:20;;;;;;;9.67;8.70;;;23.70;99.90;;;;;;5137435;27;20408;-66
2021/07/06 00:45:47;;;;;;;8.47;7.67;;;23.70;99.90;;;;;;5137434;27;20951;-63
2021/07/06 00:48:12;;;;;;;9.43;7.93;;;23.70;99.90;;;;;;5137393;27;20425;-63
2021/07/06 00:50:38;;;;;;;10.27;8.03;;;23.60;99.90;;;;;;5137299;27;20438;-63
2021/07/06 00:53:03;;;;;;;9.87;8.97;;;23.60;99.90;;;;;;5137141;27;20173;-66
2021/07/06 00:55:30;;;;;;;10.17;9.20;;;23.60;99.90;;;;;;5137013;27;20718;-66
2021/07/06 00:57:56;;;;;;;9.47;8.57;;;23.60;99.90;;;;;;5136955;27;20282;-66
2021/07/06 01:00:24;;;;;;;9.67;8.83;;;23.60;99.90;;;;;;5137116;27;20526;-66
2021/07/06 01:02:53;;;;;;;12.13;9.00;;;23.60;99.90;;;;;;5118539;27;20190;-66
2021/07/06 01:05:21;;;;;;;9.50;8.60;;;23.50;99.90;;;;;;5137137;27;20514;-66
2021/07/06 01:07:47;;;;;;;10.30;8.47;;;23.50;99.90;;;;;;5136963;27;20796;-66
2021/07/06 01:10:14;;;;;;;10.57;8.70;;;23.50;99.90;;;;;;5136235;27;20456;-63
2021/07/06 01:12:42;;;;;;;9.63;8.40;;;23.40;99.90;;;;;;5136888;27;20399;-65
2021/07/06 01:15:12;;;;;;;8.50;7.80;;;23.40;99.90;;;;;;5136669;27;20936;-63
2021/07/06 01:17:39;;;;;;;8.27;7.50;;;23.30;99.90;;;;;;5136676;27;20451;-66
2021/07/06 01:20:20;;;;;;;11.90;8.97;;;23.20;99.90;;;;;;5136589;27;20431;-66
2021/07/06 01:22:46;;;;;;;8.97;8.03;;;23.20;99.90;;;;;;5136631;27;20375;-66
2021/07/06 01:25:14;;;;;;;8.83;7.70;;;23.20;99.90;;;;;;5136510;27;20502;-66
2021/07/06 01:27:40;;;;;;;9.23;8.33;;;23.10;99.90;;;;;;5118042;27;20183;-65
2021/07/06 01:30:09;;;;;;;12.13;8.60;;;23.10;99.90;;;;;;5136356;27;20450;-62
2021/07/06 01:32:34;;;;;;;12.13;9.20;;;23.10;99.90;;;;;;5136485;27;20407;-62
2021/07/06 01:35:00;;;;;;;8.73;7.83;;;23.10;99.90;;;;;;5136281;27;20511;-63
2021/07/06 01:37:26;;;;;;;9.73;8.50;;;23.00;99.90;;;;;;5117817;27;20298;-64
2021/07/06 01:39:52;;;;;;;9.30;8.40;;;23.00;99.90;;;;;;5136063;27;20217;-63
2021/07/06 01:42:21;;;;;;;9.87;8.97;;;23.00;99.90;;;;;;5136299;27;20534;-65
2021/07/06 01:45:01;;;;;;;10.40;9.20;;;22.90;99.90;;;;;;5136038;27;20418;-62
2021/07/06 01:47:27;;;;;;;8.83;8.03;;;22.90;99.90;;;;;;5117663;27;20399;-63
2021/07/06 01:49:53;;;;;;;11.90;9.17;;;22.90;99.90;;;;;;5117444;27;20403;-66
2021/07/06 01:52:18;;;;;;;9.17;8.27;;;22.80;99.90;;;;;;5117654;27;20179;-63
2021/07/06 01:54:44;;;;;;;10.87;9.13;;;22.80;99.90;;;;;;5135672;27;20226;-66
2021/07/06 01:57:13;;;;;;;10.80;9.70;;;22.80;99.90;;;;;;5117438;27;20171;-62
2021/07/06 01:59:39;;;;;;;11.47;10.37;;;22.80;99.90;;;;;;5117459;27;20642;-66
2021/07/06 02:02:04;;;;;;;9.63;8.73;;;22.70;99.90;;;;;;5136161;27;20588;-66
2021/07/06 02:04:30;;;;;;;9.37;8.40;;;22.70;99.90;;;;;;5135815;27;20185;-66
2021/07/06 02:06:56;;;;;;;9.90;9.00;;;22.70;99.90;;;;;;5136100;27;20591;-63
2021/07/06 02:09:21;;;;;;;11.03;9.77;;;22.70;99.90;;;;;;5135677;27;20174;-63
2021/07/06 02:11:47;;;;;;;10.30;9.30;;;22.60;99.90;;;;;;5136012;27;20698;-66
2021/07/06 02:14:13;;;;;;;9.80;8.80;;;22.60;99.90;;;;;;5135679;27;20577;-66
2021/07/06 02:16:40;;;;;;;10.60;9.00;;;22.60;99.90;;;;;;5135884;27;20230;-65
2021/07/06 02:19:06;;;;;;;11.23;8.90;;;22.60;99.90;;;;;;5135401;27;20203;-63
2021/07/06 02:21:32;;;;;;;11.43;8.70;;;22.60;99.90;;;;;;5134839;27;20542;-63
2021/07/06 02:23:57;;;;;;;10.00;9.00;;;22.60;99.90;;;;;;5135422;27;20567;-65
2021/07/06 02:26:23;;;;;;;9.23;8.40;;;22.60;99.90;;;;;;5116928;27;20293;-63
2021/07/06 02:28:48;;;;;;;10.47;9.33;;;22.60;99.90;;;;;;5135360;27;20179;-66
2021/07/06 02:31:14;;;;;;;9.27;8.17;;;22.60;99.90;;;;;;5116939;27;20667;-66
2021/07/06 02:33:40;;;;;;;10.47;7.83;;;22.50;99.90;;;;;;5116875;27;20171;-64
2021/07/06 02:36:07;;;;;;;8.57;7.77;;;22.50;99.90;;;;;;5135310;27;20191;-63
2021/07/06 02:38:34;;;;;;;11.83;8.43;;;22.50;99.90;;;;;;5135280;27;20209;-62
2021/07/06 02:41:00;;;;;;;13.47;9.40;;;22.50;99.90;;;;;;5116742;27;20814;-66
2021/07/06 02:43:25;;;;;;;10.73;9.63;;;22.50;99.90;;;;;;5135035;27;20528;-63
2021/07/06 02:45:51;;;;;;;10.10;9.10;;;22.50;99.90;;;;;;5135054;27;20999;-63
2021/07/06 02:48:17;;;;;;;9.57;8.63;;;22.40;99.90;;;;;;5135101;27;20179;-66
2021/07/06 02:50:43;;;;;;;9.27;8.37;;;22.40;99.90;;;;;;5135110;27;20530;-65
2021/07/06 02:53:10;;;;;;;10.70;9.33;;;22.40;99.90;;;;;;5134958;27;20183;-63
2021/07/06 02:55:35;;;;;;;9.70;8.80;;;22.40;99.90;;;;;;5134793;27;20531;-65
2021/07/06 02:58:01;;;;;;;10.47;9.13;;;22.40;99.90;;;;;;5134812;27;20454;-66
2021/07/06 03:00:32;;;;;;;10.27;9.27;;;22.40;99.90;;;;;;5134865;27;20194;-65
2021/07/06 03:03:01;;;;;;;9.90;8.93;;;22.40;99.90;;;;;;5116393;28;20178;-66
2021/07/06 03:05:29;;;;;;;9.80;8.90;;;22.40;99.90;;;;;;5134786;27;20458;-65
2021/07/06 03:07:56;;;;;;;9.30;8.40;;;22.40;99.90;;;;;;5116295;28;20446;-66
2021/07/06 03:10:26;;;;;;;11.53;9.30;;;22.40;99.90;;;;;;5134737;27;20447;-66
2021/07/06 03:12:53;;;;;;;10.90;8.50;;;22.30;99.90;;;;;;5116300;28;20460;-63
2021/07/06 03:15:20;;;;;;;9.03;8.13;;;22.30;99.90;;;;;;5134696;28;20450;-63
2021/07/06 03:17:47;;;;;;;9.53;8.50;;;22.30;99.90;;;;;;5134531;28;20538;-66
2021/07/06 03:20:15;;;;;;;9.30;8.40;;;22.30;99.90;;;;;;5134800;28;20450;-63
2021/07/06 03:22:41;;;;;;;8.50;7.70;;;22.40;99.90;;;;;;5134517;28;20411;-66
2021/07/06 03:25:09;;;;;;;9.63;8.60;;;22.40;99.90;;;;;;5134491;28;20446;-65
2021/07/06 03:27:36;;;;;;;9.60;8.70;;;22.40;99.90;;;;;;5134519;28;20862;-66
2021/07/06 03:30:04;;;;;;;9.30;8.40;;;22.40;99.90;;;;;;5134412;28;20839;-63
2021/07/06 03:32:30;;;;;;;8.90;8.00;;;22.40;99.90;;;;;;5135923;27;20399;-66
2021/07/06 03:34:55;;;;;;;12.30;8.40;;;22.40;99.90;;;;;;5138514;27;20403;-62
2021/07/06 03:37:21;;;;;;;10.47;8.90;;;22.40;99.90;;;;;;5138568;27;20168;-63
2021/07/06 03:39:46;;;;;;;9.27;8.37;;;22.50;99.90;;;;;;5138281;27;20171;-63
2021/07/06 03:42:12;;;;;;;8.60;7.80;;;22.50;99.90;;;;;;5138498;27;20723;-65
2021/07/06 03:44:38;;;;;;;9.37;8.40;;;22.50;99.90;;;;;;5138564;27;20171;-63
2021/07/06 03:47:05;;;;;;;9.33;8.20;;;22.50;99.90;;;;;;5138880;27;20206;-63
2021/07/06 03:49:32;;;;;;;8.97;8.07;;;22.60;99.90;;;;;;5138530;27;20185;-67
2021/07/06 03:51:57;;;;;;;10.17;8.80;;;22.60;99.90;;;;;;5138726;27;20439;-63
2021/07/06 03:54:23;;;;;;;8.87;7.97;;;22.60;99.90;;;;;;5138148;27;20398;-66
2021/07/06 03:56:49;;;;;;;11.13;9.83;;;22.60;99.90;;;;;;5120142;27;20234;-66
2021/07/06 03:59:14;;;;;;;10.07;8.50;;;22.60;99.90;;;;;;5137517;27;20203;-66
2021/07/06 04:01:40;;;;;;;9.20;8.13;;;22.70;99.90;;;;;;5138514;27;20207;-63
2021/07/06 04:04:05;;;;;;;10.23;8.70;;;22.70;99.90;;;;;;5138097;27;20179;-66
2021/07/06 04:06:31;;;;;;;8.90;8.10;;;22.70;99.90;;;;;;5119320;27;20225;-66
2021/07/06 04:08:57;;;;;;;9.00;8.07;;;22.70;99.90;;;;;;5137455;27;20175;-64
2021/07/06 04:11:22;;;;;;;9.33;7.77;;;22.70;99.90;;;;;;5137710;27;20306;-66
2021/07/06 04:13:49;;;;;;;11.03;8.93;;;22.80;99.90;;;;;;5137447;27;20179;-64
2021/07/06 04:16:15;;;;;;;9.37;8.30;;;22.80;99.90;;;;;;5119400;27;20211;-62
2021/07/06 04:18:40;;;;;;;9.03;8.20;;;22.80;99.90;;;;;;5137771;27;20545;-62
2021/07/06 04:21:07;;;;;;;8.43;7.70;;;22.80;99.90;;;;;;5136386;27;20549;-62
2021/07/06 04:23:38;;;;;;;9.50;8.20;;;22.90;99.90;;;;;;5137310;27;20187;-62
2021/07/06 04:26:04;;;;;;;9.50;8.60;;;22.90;99.90;;;;;;5136956;27;21009;-62
2021/07/06 04:28:30;;;;;;;16.87;9.13;;;22.90;99.90;;;;;;5137015;27;20419;-65
2021/07/06 04:30:59;;;;;;;10.87;9.17;;;22.90;99.90;;;;;;5118893;27;20450;-66
2021/07/06 04:33:25;;;;;;;9.23;8.33;;;23.00;99.90;;;;;;5136524;27;20183;-65
2021/07/06 04:35:51;;;;;;;8.37;7.57;;;23.00;99.90;;;;;;5117506;27;20462;-67
2021/07/06 04:38:17;;;;;;;12.00;8.87;;;23.00;99.90;;;;;;5117140;27;20463;-67
2021/07/06 04:40:43;;;;;;;9.57;8.00;;;23.00;99.90;;;;;;5133525;27;20474;-66
2021/07/06 04:43:09;;;;;;;10.33;8.03;;;23.00;99.90;;;;;;5134837;27;20186;-65
2021/07/06 04:45:36;;;;;;;10.03;8.30;;;23.00;99.90;;;;;;5133013;27;20554;-66
2021/07/06 04:48:02;;;;;;;9.70;7.70;;;23.00;99.90;;;;;;5117545;27;20407;-65
2021/07/06 04:50:28;;;;;;;8.93;8.10;;;23.10;99.90;;;;;;5137287;27;20455;-66
2021/07/06 04:52:54;;;;;;;9.00;8.10;;;23.10;99.90;;;;;;5118681;27;20400;-62
2021/07/06 04:55:20;;;;;;;8.43;7.63;;;23.20;99.90;;;;;;5136979;27;20553;-62
2021/07/06 04:57:46;;;;;;;9.87;7.57;;;23.20;99.90;;;;;;5117633;27;20463;-64
2021/07/06 05:00:14;;;;;;;8.23;7.43;;;23.20;99.90;;;;;;5132541;27;20784;-65
2021/07/06 05:02:41;;;;;;;8.40;7.40;;;23.30;99.90;;;;;;5117099;27;20411;-63
2021/07/06 05:05:08;;;;;;;10.20;7.57;;;23.40;99.90;;;;;;5133696;27;20459;-66
2021/07/06 05:07:35;;;;;;;8.30;7.50;;;23.50;99.90;;;;;;5136243;27;20440;-63
2021/07/06 05:10:02;;;;;;;8.50;7.20;;;23.50;99.90;;;;;;5112550;27;20531;-63
2021/07/06 05:12:27;;;;;;;7.20;6.53;;;23.60;99.90;;;;;;5122242;27;20949;-63
2021/07/06 05:14:53;;;;;;;7.60;6.83;;;23.70;99.90;;;;;;5133261;27;20439;-63
2021/07/06 05:17:18;;;;;;;7.87;7.10;;;23.90;99.90;;;;;;5130807;27;20184;-64
2021/07/06 05:19:44;;;;;;;10.10;6.50;;;24.00;99.90;;;;;;5134786;27;20216;-63
2021/07/06 05:22:09;;;;;;;7.10;6.43;;;24.10;99.90;;;;;;5136499;27;20240;-63
2021/07/06 05:24:35;;;;;;;8.17;7.33;;;24.20;99.90;;;;;;5136072;27;20240;-66
2021/07/06 05:27:01;;;;;;;7.90;7.20;;;24.30;99.90;;;;;;5117286;27;20234;-63
2021/07/06 05:29:26;;;;;;;7.50;6.23;;;24.50;99.90;;;;;;5116943;27;20189;-64
2021/07/06 05:31:52;;;;;;;9.80;6.13;;;24.60;99.90;;;;;;5135599;27;20217;-64
2021/07/06 05:34:17;;;;;;;8.90;5.83;;;24.80;99.90;;;;;;5135220;27;20279;-64
2021/07/06 05:36:44;;;;;;;6.23;5.47;;;24.90;99.90;;;;;;5134883;27;20199;-66
2021/07/06 05:39:09;;;;;;;6.30;5.70;;;25.00;99.90;;;;;;5132020;27;20193;-66
2021/07/06 05:41:35;;;;;;;7.83;6.10;;;25.10;99.90;;;;;;5133459;27;21430;-67
2021/07/06 05:44:01;;;;;;;11.63;5.97;;;25.30;99.90;;;;;;5132657;27;20218;-67
2021/07/06 05:46:30;;;;;;;5.80;5.27;;;25.40;99.90;;;;;;5132773;27;20205;-67
2021/07/06 05:48:56;;;;;;;9.10;7.23;;;25.50;99.90;;;;;;5132823;27;20185;-62
2021/07/06 05:51:22;;;;;;;5.80;5.23;;;25.60;99.90;;;;;;5132778;27;20450;-61
2021/07/06 05:53:49;;;;;;;5.80;5.30;;;25.70;99.90;;;;;;5131192;27;20179;-69
2021/07/06 05:56:19;;;;;;;6.30;4.83;;;25.80;99.90;;;;;;5107158;28;20494;-61
2021/07/06 05:58:46;;;;;;;5.77;5.27;;;26.00;99.90;;;;;;5109621;28;20456;-69
2021/07/06 06:01:13;;;;;;;7.13;5.40;;;26.00;99.90;;;;;;5107379;28;20987;-61
2021/07/06 06:03:38;;;;;;;5.67;4.90;;;26.10;99.90;;;;;;5110434;28;20444;-60
2021/07/06 06:06:04;;;;;;;6.73;5.90;;;26.20;99.90;;;;;;5111523;28;20512;-60
2021/07/06 06:08:30;;;;;;;5.83;5.30;;;26.30;99.90;;;;;;5110589;28;20236;-62
2021/07/06 06:10:55;;;;;;;5.27;4.77;;;26.40;99.90;;;;;;5105240;28;20281;-62
2021/07/06 06:13:21;;;;;;;5.93;5.43;;;26.50;99.90;;;;;;5105003;28;20581;-64
2021/07/06 06:15:47;;;;;;;6.30;5.70;;;26.60;99.90;;;;;;5111240;28;20596;-69
2021/07/06 06:18:13;;;;;;;5.83;4.77;;;26.60;99.90;;;;;;5111439;28;20712;-63
2021/07/06 06:20:38;;;;;;;5.93;5.43;;;26.80;99.90;;;;;;5112800;28;20681;-62
2021/07/06 06:23:05;;;;;;;5.67;4.90;;;26.80;99.90;;;;;;5111877;28;20400;-64
2021/07/06 06:25:31;;;;;;;7.60;4.47;;;26.90;99.90;;;;;;5113004;28;20215;-64
2021/07/06 06:27:57;;;;;;;4.90;4.40;;;27.00;99.90;;;;;;5114167;28;20492;-64
2021/07/06 06:30:23;;;;;;;5.70;4.53;;;27.10;99.90;;;;;;5114192;28;20572;-63
2021/07/06 06:32:49;;;;;;;5.23;4.83;;;27.10;99.90;;;;;;5112598;28;20995;-68
2021/07/06 06:35:14;;;;;;;5.80;4.50;;;27.20;99.90;;;;;;5112040;28;20668;-70
2021/07/06 06:37:41;;;;;;;7.40;4.27;;;27.30;99.90;;;;;;5112738;28;20456;-69
2021/07/06 06:40:08;;;;;;;5.87;5.27;;;27.30;99.90;;;;;;5109715;28;20673;-64
2021/07/06 06:42:34;;;;;;;5.67;4.60;;;27.40;99.90;;;;;;5111176;28;20766;-65
2021/07/06 06:45:00;;;;;;;25.77;6.93;;;27.50;99.90;;;;;;5109813;28;20449;-64
2021/07/06 06:47:26;;;;;;;7.17;5.77;;;27.60;99.90;;;;;;5106331;27;20405;-69
2021/07/06 06:49:51;;;;;;;14.50;6.20;;;27.70;99.90;;;;;;5108010;28;20762;-65
2021/07/06 06:52:17;;;;;;;6.07;5.23;;;27.70;99.90;;;;;;5109327;28;20205;-72
2021/07/06 06:54:42;;;;;;;5.37;4.70;;;27.80;99.90;;;;;;5108276;27;20215;-71
2021/07/06 06:57:08;;;;;;;4.70;4.30;;;27.80;99.90;;;;;;5113701;27;20254;-71
2021/07/06 06:59:33;;;;;;;5.03;4.60;;;27.90;99.90;;;;;;5113255;27;20342;-66
2021/07/06 07:02:17;;;;;;;5.10;4.70;;;27.90;99.90;;;;;;5133518;27;20214;-70
2021/07/06 07:04:45;;;;;;;5.57;4.40;;;28.00;99.90;;;;;;5132344;27;20679;-65
2021/07/06 07:07:12;;;;;;;7.23;3.87;;;28.10;99.90;;;;;;5111165;27;20415;-65
2021/07/06 07:09:37;;;;;;;3.70;3.40;;;28.10;99.90;;;;;;5130806;27;20481;-70
2021/07/06 07:12:04;;;;;;;6.30;3.90;;;28.20;99.90;;;;;;5113103;28;20448;-65
2021/07/06 07:14:29;;;;;;;7.40;4.13;;;28.30;99.90;;;;;;5129813;28;20242;-70
2021/07/06 07:16:55;;;;;;;4.80;4.40;;;28.40;99.90;;;;;;5114251;28;20487;-71
2021/07/06 07:19:20;;;;;;;3.70;3.50;;;28.40;99.90;;;;;;5133775;28;20203;-64
2021/07/06 07:21:46;;;;;;;4.37;3.97;;;28.50;99.90;;;;;;5131730;28;20677;-62
2021/07/06 07:24:11;;;;;;;5.00;4.60;;;28.50;99.90;;;;;;5112957;28;20355;-66
2021/07/06 07:26:37;;;;;;;5.23;3.33;;;28.50;99.90;;;;;;5132829;28;20295;-63
2021/07/06 07:29:05;;;;;;;5.50;4.43;;;28.60;99.90;;;;;;5133824;28;20578;-63
2021/07/06 07:31:32;;;;;;;4.27;3.87;;;28.70;99.90;;;;;;5132021;27;20582;-68
2021/07/06 07:33:57;;;;;;;5.47;4.10;;;28.80;99.90;;;;;;5112089;28;20416;-69
2021/07/06 07:36:23;;;;;;;4.50;4.10;;;28.80;99.70;;;;;;5110579;28;20490;-70
2021/07/06 07:38:49;;;;;;;3.83;3.53;;;28.90;99.70;;;;;;5109707;28;20678;-70
2021/07/06 07:41:15;;;;;;;5.70;4.07;;;28.90;99.60;;;;;;5129788;28;20542;-64
2021/07/06 07:43:41;;;;;;;4.77;4.27;;;29.00;99.50;;;;;;5130327;28;20177;-68
2021/07/06 07:46:06;;;;;;;3.50;3.20;;;29.10;99.40;;;;;;5133527;27;20220;-69
2021/07/06 07:48:32;;;;;;;3.83;3.40;;;29.20;99.20;;;;;;5132074;28;20185;-65
2021/07/06 07:50:57;;;;;;;7.93;4.20;;;29.30;99.10;;;;;;5129647;28;20202;-64
2021/07/06 07:53:23;;;;;;;6.50;4.13;;;29.30;98.60;;;;;;5128108;28;20221;-69
2021/07/06 07:55:51;;;;;;;12.00;4.50;;;29.40;98.60;;;;;;5128793;27;20244;-65
2021/07/06 07:58:17;;;;;;;5.37;3.97;;;29.50;98.50;;;;;;5130049;28;20203;-68
2021/07/06 08:00:42;;;;;;;4.37;4.00;;;29.50;98.40;;;;;;5112027;28;20450;-68
2021/07/06 08:03:08;;;;;;;6.40;4.00;;;29.60;98.20;;;;;;5111617;28;20202;-69
2021/07/06 08:05:33;;;;;;;4.83;4.20;;;29.60;98.00;;;;;;5130166;28;20202;-67
2021/07/06 08:07:59;;;;;;;5.57;4.17;;;29.70;98.00;;;;;;5111281;28;20180;-68
2021/07/06 08:10:24;;;;;;;4.00;3.70;;;29.80;97.80;;;;;;5109885;28;20206;-64
2021/07/06 08:12:51;;;;;;;4.50;3.60;;;29.80;97.50;;;;;;5128246;28;20186;-70
2021/07/06 08:15:16;;;;;;;4.60;4.27;;;29.90;97.50;;;;;;5127232;27;20867;-66
2021/07/06 08:17:43;;;;;;;4.73;4.33;;;29.90;97.00;;;;;;5124187;27;20475;-69
2021/07/06 08:20:10;;;;;;;4.77;4.27;;;30.00;97.20;;;;;;5124297;27;20217;-64
2021/07/06 08:22:36;;;;;;;3.73;3.43;;;30.00;97.10;;;;;;5126470;27;20805;-69
2021/07/06 08:25:02;;;;;;;3.93;3.63;;;30.00;96.90;;;;;;5113734;27;20462;-66
2021/07/06 08:27:27;;;;;;;3.37;3.07;;;30.00;96.90;;;;;;5131759;27;20441;-66
2021/07/06 08:29:53;;;;;;;3.47;3.17;;;30.10;96.80;;;;;;5132859;27;20434;-67
2021/07/06 08:32:19;;;;;;;5.33;3.37;;;30.10;96.80;;;;;;5108723;27;20181;-65
2021/07/06 08:34:44;;;;;;;7.23;3.13;;;30.20;96.70;;;;;;5124622;27;20271;-65
2021/07/06 08:37:10;;;;;;;3.90;3.40;;;30.20;96.70;;;;;;5107198;27;20667;-63
2021/07/06 08:39:36;;;;;;;4.10;2.57;;;30.40;96.10;;;;;;5130279;27;20205;-69
2021/07/06 08:42:05;;;;;;;4.20;3.77;;;30.40;96.10;;;;;;5130197;27;20475;-66
2021/07/06 08:44:31;;;;;;;3.23;2.93;;;30.50;96.00;;;;;;5110322;27;20188;-64
2021/07/06 08:46:59;;;;;;;5.10;3.53;;;30.50;95.90;;;;;;5130013;27;20468;-63
2021/07/06 08:49:26;;;;;;;4.63;2.90;;;30.60;96.00;;;;;;5128859;27;20180;-65
2021/07/06 08:51:52;;;;;;;2.37;2.17;;;30.60;95.50;;;;;;5112610;27;20549;-63
2021/07/06 08:54:19;;;;;;;2.60;2.40;;;30.70;95.40;;;;;;5110160;27;20480;-67
2021/07/06 08:56:45;;;;;;;2.50;2.27;;;30.70;95.30;;;;;;5125206;27;20232;-68
2021/07/06 08:59:11;;;;;;;2.73;2.40;;;30.70;95.20;;;;;;5113364;27;20499;-66
2021/07/06 09:01:37;;;;;;;2.90;2.60;;;30.80;94.90;;;;;;5128714;27;21040;-68
2021/07/06 09:04:05;;;;;;;4.97;2.07;;;30.90;94.00;;;;;;5131631;27;20550;-67
2021/07/06 09:06:51;;;;;;;3.40;2.70;;;30.90;94.30;;;;;;5126783;27;20206;-67
2021/07/06 09:09:18;;;;;;;3.87;2.93;;;31.00;94.50;;;;;;5123306;27;20539;-67
2021/07/06 09:11:49;;;;;;;4.23;2.93;;;31.10;94.00;;;;;;5128537;27;20463;-66
2021/07/06 09:14:15;;;;;;;6.97;3.00;;;31.20;94.40;;;;;;5129301;27;20455;-67
2021/07/06 09:16:42;;;;;;;3.10;2.60;;;31.20;94.40;;;;;;5112998;27;20457;-68
2021/07/06 09:19:23;;;;;;;3.40;3.00;;;31.20;94.00;;;;;;5133240;27;20468;-67
2021/07/06 09:22:20;;;;;;;3.50;2.60;;;31.30;94.10;;;;;;5101883;27;21035;-67
2021/07/06 09:24:57;;;;;;;2.90;2.70;;;31.30;94.00;;;;;;5125574;27;20412;-68
2021/07/06 09:27:26;;;;;;;5.43;2.97;;;31.30;93.60;;;;;;5120753;27;20765;-67
2021/07/06 09:30:24;;;;;;;4.73;2.80;;;31.30;93.60;;;;;;5102762;27;20581;-67
2021/07/06 09:32:58;;;;;;;2.60;2.40;;;31.30;93.20;;;;;;5091876;27;20852;-66
2021/07/06 09:35:26;;;;;;;3.57;2.30;;;31.40;90.40;;;;;;5127346;27;20442;-66
2021/07/06 09:37:57;;;;;;;2.33;2.23;;;31.40;89.90;;;;;;5110675;27;20458;-65
2021/07/06 09:40:36;;;;;;;3.30;3.00;;;31.40;89.30;;;;;;5111847;27;20465;-68
2021/07/06 09:43:22;;;;;;;3.00;2.80;;;31.50;90.90;;;;;;5130402;27;20442;-67
2021/07/06 09:45:54;;;;;;;2.80;2.60;;;31.50;92.10;;;;;;5127786;27;20461;-65
2021/07/06 09:48:19;;;;;;;3.73;3.30;;;31.50;91.90;;;;;;5128517;27;20420;-69
2021/07/06 09:50:45;;;;;;;4.83;2.70;;;31.50;90.40;;;;;;5125820;27;20419;-66
2021/07/06 09:53:24;;;;;;;2.70;2.50;;;31.70;90.00;;;;;;5125078;27;20175;-67
2021/07/06 09:55:50;;;;;;;3.37;3.17;;;31.70;90.00;;;;;;5108963;27;20250;-65
2021/07/06 09:58:16;;;;;;;3.00;2.80;;;31.80;90.70;;;;;;5109990;27;20490;-66
2021/07/06 10:00:41;;;;;;;2.90;2.43;;;31.80;90.50;;;;;;5130489;27;20593;-67
2021/07/06 10:03:07;;;;;;;3.90;2.60;;;31.70;91.10;;;;;;5112797;27;20179;-65
2021/07/06 10:05:33;;;;;;;6.20;2.80;;;31.70;91.10;;;;;;5129584;27;20593;-66
2021/07/06 10:08:01;;;;;;;3.20;2.90;;;31.70;91.20;;;;;;5104523;27;20224;-67
2021/07/06 10:10:27;;;;;;;3.27;2.50;;;31.70;90.50;;;;;;5125325;27;20447;-67
2021/07/06 10:12:55;;;;;;;2.40;2.23;;;31.70;90.80;;;;;;5108670;27;20806;-68
2021/07/06 10:15:22;;;;;;;2.70;2.50;;;31.70;91.00;;;;;;5110511;27;20454;-67
2021/07/06 10:17:52;;;;;;;2.83;2.63;;;31.70;88.80;;;;;;5127685;27;20466;-67
2021/07/06 10:20:26;;;;;;;3.27;3.07;;;31.70;88.60;;;;;;5126307;27;20456;-60
2021/07/06 10:22:54;;;;;;;2.90;2.60;;;31.60;90.00;;;;;;5123183;27;20451;-63
2021/07/06 10:25:38;;;;;;;2.87;2.57;;;31.60;90.40;;;;;;5130077;27;20442;-61
2021/07/06 10:28:06;;;;;;;3.37;3.07;;;31.60;90.90;;;;;;5126893;27;20427;-64
2021/07/06 10:30:40;;;;;;;6.70;3.10;;;31.50;90.80;;;;;;5124992;27;20454;-67
2021/07/06 10:33:30;;;;;;;3.10;2.80;;;31.50;89.80;;;;;;5110857;27;20410;-65
2021/07/06 10:35:56;;;;;;;3.43;2.60;;;31.40;90.20;;;;;;5111089;27;20457;-66
2021/07/06 10:38:31;;;;;;;2.80;2.60;;;31.40;88.60;;;;;;5132353;27;20459;-66
2021/07/06 10:41:01;;;;;;;2.60;2.40;;;31.40;90.00;;;;;;5129964;27;20453;-62
2021/07/06 10:43:31;;;;;;;2.90;2.57;;;31.40;90.70;;;;;;5130978;27;20414;-62
2021/07/06 10:46:12;;;;;;;3.13;2.83;;;31.40;90.70;;;;;;5115727;27;20456;-65
2021/07/06 10:48:42;;;;;;;2.97;2.43;;;31.40;90.80;;;;;;5132792;27;20413;-62
2021/07/06 10:51:08;;;;;;;2.63;2.43;;;31.30;90.90;;;;;;5129185;27;20448;-62
2021/07/06 10:53:34;;;;;;;2.90;2.70;;;31.30;90.90;;;;;;5130092;27;20784;-66
2021/07/06 10:56:12;;;;;;;2.93;2.67;;;31.20;91.00;;;;;;5129657;27;20377;-61
2021/07/06 10:58:54;;;;;;;2.60;2.40;;;31.20;90.90;;;;;;5110084;27;20213;-62
2021/07/06 11:01:40;;;;;;;2.60;2.40;;;31.20;90.30;;;;;;5129571;27;20460;-64
2021/07/06 11:04:11;;;;;;;2.40;2.20;;;31.20;90.40;;;;;;5108403;27;20438;-63
2021/07/06 11:06:46;;;;;;;5.57;2.50;;;31.30;90.30;;;;;;5106917;27;20863;-67
2021/07/06 11:09:35;;;;;;;3.10;2.60;;;31.20;90.40;;;;;;5109639;28;20431;-67
2021/07/06 11:12:21;;;;;;;2.90;2.70;;;31.30;90.40;;;;;;5105798;28;20467;-62
2021/07/06 11:14:54;;;;;;;2.70;2.50;;;31.30;90.40;;;;;;5128906;27;20421;-67
2021/07/06 11:17:35;;;;;;;2.30;2.20;;;31.30;90.00;;;;;;5107544;28;20802;-67
2021/07/06 11:20:08;;;;;;;2.73;2.53;;;31.30;88.20;;;;;;5107618;27;20439;-65
2021/07/06 11:22:51;;;;;;;2.77;2.57;;;31.20;90.90;;;;;;5125804;28;20430;-67
2021/07/06 11:25:36;;;;;;;2.57;2.37;;;31.20;90.30;;;;;;5110988;28;20461;-62
2021/07/06 11:28:26;;;;;;;2.60;2.40;;;31.20;90.80;;;;;;5124128;28;20410;-62
2021/07/06 11:30:54;;;;;;;2.40;2.30;;;31.20;90.00;;;;;;5124922;28;20454;-68
2021/07/06 11:33:22;;;;;;;2.30;2.10;;;31.10;90.90;;;;;;5128916;28;20443;-67
2021/07/06 11:35:50;;;;;;;2.37;2.27;;;31.00;91.10;;;;;;5129439;27;20488;-62
2021/07/06 11:38:19;;;;;;;2.70;2.50;;;30.90;90.60;;;;;;5121218;28;20466;-62
2021/07/06 11:40:46;;;;;;;2.60;2.23;;;31.10;86.00;;;;;;5121747;28;20452;-63
2021/07/06 11:43:17;;;;;;;2.50;2.30;;;31.10;87.00;;;;;;5126195;28;20792;-63
2021/07/06 11:45:51;;;;;;;4.63;2.30;;;31.10;90.30;;;;;;5125886;28;20857;-63
2021/07/06 11:48:18;;;;;;;1.93;1.83;;;31.00;90.70;;;;;;5125888;28;20451;-65
2021/07/06 11:50:46;;;;;;;2.27;2.10;;;31.00;90.90;;;;;;5124425;28;20453;-64
2021/07/06 11:53:12;;;;;;;2.43;2.23;;;31.10;90.10;;;;;;5105330;27;20464;-67
2021/07/06 11:55:39;;;;;;;2.00;1.90;;;31.10;90.40;;;;;;5109744;27;20485;-64
2021/07/06 11:58:08;;;;;;;2.30;1.70;;;31.10;90.80;;;;;;5129663;27;20549;-66
2021/07/06 12:00:36;;;;;;;2.00;1.80;;;31.20;87.20;;;;;;5128689;27;20455;-67
2021/07/06 12:03:19;;;;;;;2.20;1.70;;;31.20;87.20;;;;;;5132580;27;20895;-64
2021/07/06 12:05:47;;;;;;;3.13;1.60;;;31.30;85.10;;;;;;5127159;27;20977;-66
2021/07/06 12:08:30;;;;;;;2.20;2.00;;;31.30;87.90;;;;;;5132307;27;20434;-62
2021/07/06 12:11:11;;;;;;;2.40;1.60;;;31.30;90.20;;;;;;5126365;27;20809;-64
2021/07/06 12:13:39;;;;;;;3.10;2.27;;;31.20;89.20;;;;;;5110517;27;20440;-69
2021/07/06 12:16:11;;;;;;;2.30;1.90;;;31.30;88.90;;;;;;5127353;27;20498;-68
2021/07/06 12:18:47;;;;;;;2.57;2.37;;;31.40;88.10;;;;;;5111626;27;20452;-68
2021/07/06 12:21:25;;;;;;;2.50;2.03;;;31.40;89.80;;;;;;5106024;27;20536;-67
2021/07/06 12:23:52;;;;;;;3.63;2.20;;;31.40;89.70;;;;;;5108842;27;20514;-68
2021/07/06 12:26:18;;;;;;;1.90;1.80;;;31.50;90.00;;;;;;5114224;27;21044;-69
2021/07/06 12:28:44;;;;;;;1.90;1.80;;;31.50;89.20;;;;;;5130789;27;20819;-63
2021/07/06 12:31:17;;;;;;;8.77;2.13;;;31.50;89.20;;;;;;5131033;27;20447;-69
2021/07/06 12:33:44;;;;;;;5.53;2.10;;;31.50;88.50;;;;;;5125435;27;20179;-72
2021/07/06 12:36:10;;;;;;;2.17;2.03;;;31.60;88.50;;;;;;5127887;27;20478;-62
2021/07/06 12:38:36;;;;;;;3.33;1.80;;;31.70;84.60;;;;;;5133924;27;20880;-63
2021/07/06 12:41:16;;;;;;;2.10;1.90;;;31.70;82.40;;;;;;5133404;27;20234;-69
2021/07/06 12:43:42;;;;;;;1.90;1.80;;;31.80;87.30;;;;;;5130122;27;20474;-63
2021/07/06 12:46:08;;;;;;;2.43;1.73;;;31.80;85.80;;;;;;5133807;27;20874;-62
2021/07/06 12:48:35;;;;;;;2.50;1.60;;;31.80;86.60;;;;;;5112106;27;20265;-66
2021/07/06 12:51:10;;;;;;;1.70;1.60;;;31.90;88.20;;;;;;5108218;27;20462;-62